Home > Products > Valid Products > TAF

000
FTUS43 KFGF 311100
TAFFAR
TAF
KFAR 311120Z 3112/0112 VRB03KT P6SM SKC
     FM311600 33008KT P6SM SCT060
     FM010100 VRB03KT P6SM SKC=



000
FTUS43 KFGF 311100
TAFGFK
TAF
KGFK 311120Z 3112/0112 VRB03KT P6SM FEW070
     FM311600 33007KT P6SM SCT060
     FM010100 VRB03KT P6SM SKC=



000
FTUS43 KFGF 310500
TAFGFK
TAF
KGFK 310522Z 3106/0106 VRB03KT P6SM SKC
     FM311600 33007KT P6SM SCT045
     FM010100 VRB03KT P6SM SKC=



000
FTUS43 KFGF 310500
TAFFAR
TAF
KFAR 310522Z 3106/0106 VRB03KT P6SM SKC
     FM311600 33007KT P6SM SCT045
     FM010100 VRB03KT P6SM SKC=



000
FTUS43 KFGF 302300
TAFGFK
TAF
KGFK 302322Z 3100/3124 VRB03KT P6SM SKC
     FM311600 33007KT P6SM SCT045=



000
FTUS43 KFGF 302300
TAFFAR
TAF
KFAR 302322Z 3100/3124 VRB03KT P6SM SKC
     FM311600 33007KT P6SM SCT045=



000
FTUS43 KFGF 301700
TAFFAR
TAF
KFAR 301738Z 3018/3118 33006KT P6SM SCT045
     FM310100 VRB03KT P6SM SKC
     FM311600 33007KT P6SM SCT045=



000
FTUS43 KFGF 301700
TAFGFK
TAF
KGFK 301738Z 3018/3118 33006KT P6SM SCT045
     FM310100 VRB03KT P6SM SKC
     FM311600 33007KT P6SM SCT045=



000
FTUS43 KFGF 301100
TAFFAR
TAF
KFAR 301138Z 3012/3112 31006KT P6SM SKC=



000
FTUS43 KFGF 301100
TAFGFK
TAF
KGFK 301138Z 3012/3112 31007KT P6SM SKC=



000
FTUS43 KFGF 300500
TAFFAR
TAF
KFAR 300520Z 3006/3106 VRB06KT P6SM SKC=



000
FTUS43 KFGF 300500
TAFGFK
TAF
KGFK 300520Z 3006/3106 30006KT P6SM SKC=



000
FTUS43 KFGF 292300
TAFFAR
TAF
KFAR 292320Z 3000/3024 34005KT P6SM SKC
     FM301400 31004KT P6SM SKC=



000
FTUS43 KFGF 292300
TAFGFK
TAF
KGFK 292320Z 3000/3024 33005KT P6SM SKC
     FM301400 31004KT P6SM SKC=



000
FTUS43 KFGF 291700
TAFGFK
TAF
KGFK 291720Z 2918/3018 34008KT P6SM SCT050=



000
FTUS43 KFGF 291700
TAFFAR
TAF
KFAR 291720Z 2918/3018 34009KT P6SM SCT050=



000
FTUS43 KFGF 291100
TAFGFK
TAF
KGFK 291120Z 2912/3012 VRB03KT P6SM SKC
     FM291600 33008KT P6SM SCT050
     FM300000 VRB03KT P6SM SKC=



000
FTUS43 KFGF 291100
TAFFAR
TAF
KFAR 291120Z 2912/3012 VRB03KT P6SM SKC
     FM291600 34009KT P6SM SCT050
     FM300000 VRB03KT P6SM SKC=



000
FTUS43 KFGF 290500
TAFGFK
TAF
KGFK 290522Z 2906/3006 VRB03KT P6SM SKC
     FM291600 33007KT P6SM SCT050
     FM300000 VRB03KT P6SM SKC=



000
FTUS43 KFGF 290500
TAFFAR
TAF
KFAR 290522Z 2906/3006 VRB03KT P6SM SKC
     FM291600 34007KT P6SM SCT050
     FM300000 VRB03KT P6SM SKC=



000
FTUS43 KFGF 282300
TAFGFK
TAF
KGFK 282322Z 2900/2924 VRB03KT P6SM SKC
     FM291600 33007KT P6SM SCT050=



000
FTUS43 KFGF 282300
TAFFAR
TAF
KFAR 282322Z 2900/2924 VRB03KT P6SM SKC
     FM291600 34007KT P6SM SCT050=



000
FTUS43 KFGF 281700
TAFFAR
TAF
KFAR 281720Z 2818/2918 34008KT P6SM BKN060
     FM290100 VRB05KT P6SM SKC
     FM291600 34007KT P6SM SCT050=



000
FTUS43 KFGF 281700
TAFGFK
TAF
KGFK 281720Z 2818/2918 34008KT P6SM SCT060
     FM290100 VRB05KT P6SM SKC
     FM291600 33007KT P6SM SCT050=



000
FTUS43 KFGF 281600 AAA
TAFFAR
TAF AMD
KFAR 281655Z 2817/2912 34008KT P6SM OVC060
     FM281730 34008KT P6SM SCT060=



000
FTUS43 KFGF 281400 AAA
TAFGFK
TAF AMD
KGFK 281427Z 2814/2912 32006KT P6SM BKN060
     FM281500 34008KT P6SM SCT060=



    US Dept of Commerce
    National Oceanic and Atmospheric Administration
    National Weather Service
    1325 East West Highway
    Silver Spring, MD 20910
    Page Author: NWS Internet Services Team
Disclaimer
Information Quality
Credits
Glossary
Privacy Policy
Freedom of Information Act (FOIA)
About Us
Career Opportunities